sensor_id;sensor_type;location;lat;lon;timestamp;temperature;humidity
18426;DHT22;9340;48.756;9.226;2023-07-13T00:01:42;19.90;99.90
18426;DHT22;9340;48.756;9.226;2023-07-13T00:04:09;19.80;99.90
18426;DHT22;9340;48.756;9.226;2023-07-13T00:06:36;19.70;99.90
18426;DHT22;9340;48.756;9.226;2023-07-13T00:09:03;19.70;99.90
18426;DHT22;9340;48.756;9.226;2023-07-13T00:11:29;19.50;99.90
18426;DHT22;9340;48.756;9.226;2023-07-13T00:13:56;19.30;99.90
18426;DHT22;9340;48.756;9.226;2023-07-13T00:16:24;19.20;99.90
18426;DHT22;9340;48.756;9.226;2023-07-13T00:18:51;19.10;99.90
18426;DHT22;9340;48.756;9.226;2023-07-13T00:21:18;19.10;99.90
18426;DHT22;9340;48.756;9.226;2023-07-13T00:23:44;18.90;99.90
18426;DHT22;9340;48.756;9.226;2023-07-13T00:26:11;18.90;99.90
18426;DHT22;9340;48.756;9.226;2023-07-13T00:28:39;18.80;99.90
18426;DHT22;9340;48.756;9.226;2023-07-13T00:31:08;18.80;99.90
18426;DHT22;9340;48.756;9.226;2023-07-13T00:33:36;18.80;99.90
18426;DHT22;9340;48.756;9.226;2023-07-13T00:36:03;18.70;99.90
18426;DHT22;9340;48.756;9.226;2023-07-13T00:38:30;18.60;99.90
18426;DHT22;9340;48.756;9.226;2023-07-13T00:40:56;18.50;99.90
18426;DHT22;9340;48.756;9.226;2023-07-13T00:43:25;18.50;99.90
18426;DHT22;9340;48.756;9.226;2023-07-13T00:46:19;18.40;99.90
18426;DHT22;9340;48.756;9.226;2023-07-13T00:48:48;18.30;99.90
18426;DHT22;9340;48.756;9.226;2023-07-13T00:51:19;18.30;99.90
18426;DHT22;9340;48.756;9.226;2023-07-13T00:53:47;18.20;99.90
18426;DHT22;9340;48.756;9.226;2023-07-13T00:56:14;18.20;99.90
18426;DHT22;9340;48.756;9.226;2023-07-13T00:58:41;18.10;99.90
18426;DHT22;9340;48.756;9.226;2023-07-13T01:01:07;18.10;99.90
18426;DHT22;9340;48.756;9.226;2023-07-13T01:03:34;18.00;99.90
18426;DHT22;9340;48.756;9.226;2023-07-13T01:06:04;18.00;99.90
18426;DHT22;9340;48.756;9.226;2023-07-13T01:08:31;18.10;99.90
18426;DHT22;9340;48.756;9.226;2023-07-13T01:10:58;18.10;99.90
18426;DHT22;9340;48.756;9.226;2023-07-13T01:13:25;18.10;99.90
18426;DHT22;9340;48.756;9.226;2023-07-13T01:15:54;18.10;99.90
18426;DHT22;9340;48.756;9.226;2023-07-13T01:18:22;18.00;99.90
18426;DHT22;9340;48.756;9.226;2023-07-13T01:20:55;18.00;99.90
18426;DHT22;9340;48.756;9.226;2023-07-13T01:23:23;18.00;99.90
18426;DHT22;9340;48.756;9.226;2023-07-13T01:25:50;18.00;99.90
18426;DHT22;9340;48.756;9.226;2023-07-13T01:28:17;17.90;99.90
18426;DHT22;9340;48.756;9.226;2023-07-13T01:30:45;17.80;99.90
18426;DHT22;9340;48.756;9.226;2023-07-13T01:33:13;17.70;99.90
18426;DHT22;9340;48.756;9.226;2023-07-13T01:35:42;17.70;99.90
18426;DHT22;9340;48.756;9.226;2023-07-13T01:38:10;17.60;99.90
18426;DHT22;9340;48.756;9.226;2023-07-13T01:40:38;17.60;99.90
18426;DHT22;9340;48.756;9.226;2023-07-13T01:43:05;17.60;99.90
18426;DHT22;9340;48.756;9.226;2023-07-13T01:45:32;17.40;99.90
18426;DHT22;9340;48.756;9.226;2023-07-13T01:47:59;17.30;99.90
18426;DHT22;9340;48.756;9.226;2023-07-13T01:50:26;17.30;99.90
18426;DHT22;9340;48.756;9.226;2023-07-13T01:52:53;17.20;99.90
18426;DHT22;9340;48.756;9.226;2023-07-13T01:55:21;17.10;99.90
18426;DHT22;9340;48.756;9.226;2023-07-13T01:57:48;17.10;99.90
18426;DHT22;9340;48.756;9.226;2023-07-13T02:00:16;17.00;99.90
18426;DHT22;9340;48.756;9.226;2023-07-13T02:02:43;16.90;99.90
18426;DHT22;9340;48.756;9.226;2023-07-13T02:05:11;16.90;99.90
18426;DHT22;9340;48.756;9.226;2023-07-13T02:07:37;16.80;99.90
18426;DHT22;9340;48.756;9.226;2023-07-13T02:10:05;16.80;99.90
18426;DHT22;9340;48.756;9.226;2023-07-13T02:12:33;16.80;99.90
18426;DHT22;9340;48.756;9.226;2023-07-13T02:15:00;16.70;99.90
18426;DHT22;9340;48.756;9.226;2023-07-13T02:17:27;16.70;99.90
18426;DHT22;9340;48.756;9.226;2023-07-13T02:19:54;16.70;99.90
18426;DHT22;9340;48.756;9.226;2023-07-13T02:22:21;16.70;99.90
18426;DHT22;9340;48.756;9.226;2023-07-13T02:24:48;16.70;99.90
18426;DHT22;9340;48.756;9.226;2023-07-13T02:27:15;16.60;99.90
18426;DHT22;9340;48.756;9.226;2023-07-13T02:29:43;16.50;99.90
18426;DHT22;9340;48.756;9.226;2023-07-13T02:32:10;16.50;99.90
18426;DHT22;9340;48.756;9.226;2023-07-13T02:34:36;16.40;99.90
18426;DHT22;9340;48.756;9.226;2023-07-13T02:37:03;16.30;99.90
18426;DHT22;9340;48.756;9.226;2023-07-13T02:39:30;16.30;99.90
18426;DHT22;9340;48.756;9.226;2023-07-13T02:41:58;16.20;99.90
18426;DHT22;9340;48.756;9.226;2023-07-13T02:44:25;16.20;99.90
18426;DHT22;9340;48.756;9.226;2023-07-13T02:46:53;16.10;99.90
18426;DHT22;9340;48.756;9.226;2023-07-13T02:49:19;16.10;99.90
18426;DHT22;9340;48.756;9.226;2023-07-13T02:51:46;16.10;99.90
18426;DHT22;9340;48.756;9.226;2023-07-13T02:54:12;16.10;99.90
18426;DHT22;9340;48.756;9.226;2023-07-13T02:56:40;16.10;99.90
18426;DHT22;9340;48.756;9.226;2023-07-13T02:59:08;15.90;99.90
18426;DHT22;9340;48.756;9.226;2023-07-13T03:01:35;15.90;99.90
18426;DHT22;9340;48.756;9.226;2023-07-13T03:04:03;15.90;99.90
18426;DHT22;9340;48.756;9.226;2023-07-13T03:06:30;15.80;99.90
18426;DHT22;9340;48.756;9.226;2023-07-13T03:08:57;15.80;99.90
18426;DHT22;9340;48.756;9.226;2023-07-13T03:11:25;15.80;99.90
18426;DHT22;9340;48.756;9.226;2023-07-13T03:13:52;15.80;99.90
18426;DHT22;9340;48.756;9.226;2023-07-13T03:16:19;15.90;99.90
18426;DHT22;9340;48.756;9.226;2023-07-13T03:18:46;15.90;99.90
18426;DHT22;9340;48.756;9.226;2023-07-13T03:21:14;15.80;99.90
18426;DHT22;9340;48.756;9.226;2023-07-13T03:23:41;15.90;99.90
18426;DHT22;9340;48.756;9.226;2023-07-13T03:26:10;16.00;99.90
18426;DHT22;9340;48.756;9.226;2023-07-13T03:28:39;16.00;99.90
18426;DHT22;9340;48.756;9.226;2023-07-13T03:31:08;16.20;99.90
18426;DHT22;9340;48.756;9.226;2023-07-13T03:33:36;16.40;99.90
18426;DHT22;9340;48.756;9.226;2023-07-13T03:36:03;16.60;99.90
18426;DHT22;9340;48.756;9.226;2023-07-13T03:38:33;16.70;99.90
18426;DHT22;9340;48.756;9.226;2023-07-13T03:41:00;16.80;99.90
18426;DHT22;9340;48.756;9.226;2023-07-13T03:43:27;16.80;99.90
18426;DHT22;9340;48.756;9.226;2023-07-13T03:45:54;16.90;99.90
18426;DHT22;9340;48.756;9.226;2023-07-13T03:48:20;16.90;99.90
18426;DHT22;9340;48.756;9.226;2023-07-13T03:50:47;17.00;99.90
18426;DHT22;9340;48.756;9.226;2023-07-13T03:53:14;17.10;99.90
18426;DHT22;9340;48.756;9.226;2023-07-13T03:55:42;17.10;99.90
18426;DHT22;9340;48.756;9.226;2023-07-13T03:58:30;17.20;99.90
18426;DHT22;9340;48.756;9.226;2023-07-13T04:00:58;17.20;99.90
18426;DHT22;9340;48.756;9.226;2023-07-13T04:03:25;17.30;99.90
18426;DHT22;9340;48.756;9.226;2023-07-13T04:05:53;17.30;99.90
18426;DHT22;9340;48.756;9.226;2023-07-13T04:08:20;17.30;99.90
18426;DHT22;9340;48.756;9.226;2023-07-13T04:10:48;17.40;99.90
18426;DHT22;9340;48.756;9.226;2023-07-13T04:13:14;17.50;99.90
18426;DHT22;9340;48.756;9.226;2023-07-13T04:15:41;17.50;99.90
18426;DHT22;9340;48.756;9.226;2023-07-13T04:18:08;17.50;99.90
18426;DHT22;9340;48.756;9.226;2023-07-13T04:20:34;17.50;99.90
18426;DHT22;9340;48.756;9.226;2023-07-13T04:23:01;17.50;99.90
18426;DHT22;9340;48.756;9.226;2023-07-13T04:25:28;17.60;99.90
18426;DHT22;9340;48.756;9.226;2023-07-13T04:27:56;17.60;99.90
18426;DHT22;9340;48.756;9.226;2023-07-13T04:30:23;17.70;99.90
18426;DHT22;9340;48.756;9.226;2023-07-13T04:32:51;17.80;99.90
18426;DHT22;9340;48.756;9.226;2023-07-13T04:35:18;17.80;99.90
18426;DHT22;9340;48.756;9.226;2023-07-13T04:37:46;17.90;99.90
18426;DHT22;9340;48.756;9.226;2023-07-13T04:40:13;17.90;99.90
18426;DHT22;9340;48.756;9.226;2023-07-13T04:42:39;17.90;99.90
18426;DHT22;9340;48.756;9.226;2023-07-13T04:45:08;17.90;99.90
18426;DHT22;9340;48.756;9.226;2023-07-13T04:47:35;17.90;99.90
18426;DHT22;9340;48.756;9.226;2023-07-13T04:50:02;17.80;99.90
18426;DHT22;9340;48.756;9.226;2023-07-13T04:52:29;17.80;99.90
18426;DHT22;9340;48.756;9.226;2023-07-13T04:54:55;17.70;99.90
18426;DHT22;9340;48.756;9.226;2023-07-13T04:57:22;17.60;99.90
18426;DHT22;9340;48.756;9.226;2023-07-13T04:59:49;17.60;99.90
18426;DHT22;9340;48.756;9.226;2023-07-13T05:02:17;17.70;99.90
18426;DHT22;9340;48.756;9.226;2023-07-13T05:04:46;17.80;99.90
18426;DHT22;9340;48.756;9.226;2023-07-13T05:07:13;17.90;99.90
18426;DHT22;9340;48.756;9.226;2023-07-13T05:09:39;18.00;99.90
18426;DHT22;9340;48.756;9.226;2023-07-13T05:12:08;18.10;99.90
18426;DHT22;9340;48.756;9.226;2023-07-13T05:14:35;18.20;99.90
18426;DHT22;9340;48.756;9.226;2023-07-13T05:17:01;18.30;99.90
18426;DHT22;9340;48.756;9.226;2023-07-13T05:19:30;18.50;99.90
18426;DHT22;9340;48.756;9.226;2023-07-13T05:21:56;18.80;99.90
18426;DHT22;9340;48.756;9.226;2023-07-13T05:24:23;19.00;99.90
18426;DHT22;9340;48.756;9.226;2023-07-13T05:26:50;19.30;99.90
18426;DHT22;9340;48.756;9.226;2023-07-13T05:29:16;19.50;99.90
18426;DHT22;9340;48.756;9.226;2023-07-13T05:31:43;19.80;99.90
18426;DHT22;9340;48.756;9.226;2023-07-13T05:34:10;20.00;99.90
18426;DHT22;9340;48.756;9.226;2023-07-13T05:36:38;20.30;99.90
18426;DHT22;9340;48.756;9.226;2023-07-13T05:39:04;20.70;99.90
18426;DHT22;9340;48.756;9.226;2023-07-13T05:41:31;20.80;99.90
18426;DHT22;9340;48.756;9.226;2023-07-13T05:43:58;20.70;99.90
18426;DHT22;9340;48.756;9.226;2023-07-13T05:46:26;20.80;99.90
18426;DHT22;9340;48.756;9.226;2023-07-13T05:48:53;20.70;99.90
18426;DHT22;9340;48.756;9.226;2023-07-13T05:51:19;20.50;99.90
18426;DHT22;9340;48.756;9.226;2023-07-13T05:53:47;20.30;99.90
18426;DHT22;9340;48.756;9.226;2023-07-13T05:56:14;20.20;99.90
18426;DHT22;9340;48.756;9.226;2023-07-13T05:58:41;19.90;99.90
18426;DHT22;9340;48.756;9.226;2023-07-13T06:01:10;19.90;99.90
18426;DHT22;9340;48.756;9.226;2023-07-13T06:03:37;19.90;99.90
18426;DHT22;9340;48.756;9.226;2023-07-13T06:06:05;19.90;99.90
18426;DHT22;9340;48.756;9.226;2023-07-13T06:08:32;20.00;99.90
18426;DHT22;9340;48.756;9.226;2023-07-13T06:11:05;20.20;99.90
18426;DHT22;9340;48.756;9.226;2023-07-13T06:13:32;20.40;99.90
18426;DHT22;9340;48.756;9.226;2023-07-13T06:15:59;20.80;99.90
18426;DHT22;9340;48.756;9.226;2023-07-13T06:18:26;22.00;99.90
18426;DHT22;9340;48.756;9.226;2023-07-13T06:20:52;23.90;99.90
18426;DHT22;9340;48.756;9.226;2023-07-13T06:23:19;25.20;99.90
18426;DHT22;9340;48.756;9.226;2023-07-13T06:25:45;25.70;99.90
18426;DHT22;9340;48.756;9.226;2023-07-13T06:28:13;25.60;99.90
18426;DHT22;9340;48.756;9.226;2023-07-13T06:30:40;25.90;99.90
18426;DHT22;9340;48.756;9.226;2023-07-13T06:33:07;26.30;99.90
18426;DHT22;9340;48.756;9.226;2023-07-13T06:35:34;26.50;99.90
18426;DHT22;9340;48.756;9.226;2023-07-13T06:38:01;26.40;99.90
18426;DHT22;9340;48.756;9.226;2023-07-13T06:40:28;26.00;99.90
18426;DHT22;9340;48.756;9.226;2023-07-13T06:42:55;25.80;99.90
18426;DHT22;9340;48.756;9.226;2023-07-13T06:45:23;25.20;99.90
18426;DHT22;9340;48.756;9.226;2023-07-13T06:47:50;24.70;99.90
18426;DHT22;9340;48.756;9.226;2023-07-13T06:50:17;24.30;99.90
18426;DHT22;9340;48.756;9.226;2023-07-13T06:52:43;24.00;99.90
18426;DHT22;9340;48.756;9.226;2023-07-13T06:55:10;24.20;99.90
18426;DHT22;9340;48.756;9.226;2023-07-13T06:57:37;24.40;99.90
18426;DHT22;9340;48.756;9.226;2023-07-13T07:00:05;24.50;99.90
18426;DHT22;9340;48.756;9.226;2023-07-13T07:02:33;24.60;99.90
18426;DHT22;9340;48.756;9.226;2023-07-13T07:05:00;24.60;99.90
18426;DHT22;9340;48.756;9.226;2023-07-13T07:07:28;24.50;99.90
18426;DHT22;9340;48.756;9.226;2023-07-13T07:09:54;24.30;99.90
18426;DHT22;9340;48.756;9.226;2023-07-13T07:12:21;24.10;99.90
18426;DHT22;9340;48.756;9.226;2023-07-13T07:14:48;23.50;99.90
18426;DHT22;9340;48.756;9.226;2023-07-13T07:17:14;22.90;99.90
18426;DHT22;9340;48.756;9.226;2023-07-13T07:19:42;22.10;99.90
18426;DHT22;9340;48.756;9.226;2023-07-13T07:22:09;21.80;99.90
18426;DHT22;9340;48.756;9.226;2023-07-13T07:24:36;21.80;99.90
18426;DHT22;9340;48.756;9.226;2023-07-13T07:27:03;21.90;99.90
18426;DHT22;9340;48.756;9.226;2023-07-13T07:29:30;22.20;99.90
18426;DHT22;9340;48.756;9.226;2023-07-13T07:31:58;22.30;99.90
18426;DHT22;9340;48.756;9.226;2023-07-13T07:34:25;22.50;99.90
18426;DHT22;9340;48.756;9.226;2023-07-13T07:36:53;22.70;99.90
18426;DHT22;9340;48.756;9.226;2023-07-13T07:39:20;22.50;99.90
18426;DHT22;9340;48.756;9.226;2023-07-13T07:41:47;22.50;99.90
18426;DHT22;9340;48.756;9.226;2023-07-13T07:44:14;22.50;99.90
18426;DHT22;9340;48.756;9.226;2023-07-13T07:46:40;22.20;99.90
18426;DHT22;9340;48.756;9.226;2023-07-13T07:49:07;22.30;99.90
18426;DHT22;9340;48.756;9.226;2023-07-13T07:51:34;22.40;99.90
18426;DHT22;9340;48.756;9.226;2023-07-13T07:54:02;22.50;99.90
18426;DHT22;9340;48.756;9.226;2023-07-13T07:56:29;22.40;99.90
18426;DHT22;9340;48.756;9.226;2023-07-13T07:58:56;22.50;99.90
18426;DHT22;9340;48.756;9.226;2023-07-13T08:01:23;22.60;99.90
18426;DHT22;9340;48.756;9.226;2023-07-13T08:03:50;22.60;99.90
18426;DHT22;9340;48.756;9.226;2023-07-13T08:06:16;22.50;99.90
18426;DHT22;9340;48.756;9.226;2023-07-13T08:08:45;22.50;99.90
18426;DHT22;9340;48.756;9.226;2023-07-13T08:11:13;22.70;99.90
18426;DHT22;9340;48.756;9.226;2023-07-13T08:13:40;22.80;99.90
18426;DHT22;9340;48.756;9.226;2023-07-13T08:16:07;23.00;99.90
18426;DHT22;9340;48.756;9.226;2023-07-13T08:18:33;23.10;99.90
18426;DHT22;9340;48.756;9.226;2023-07-13T08:21:03;23.20;99.90
18426;DHT22;9340;48.756;9.226;2023-07-13T08:23:30;23.30;99.90
18426;DHT22;9340;48.756;9.226;2023-07-13T08:25:57;23.50;99.90
18426;DHT22;9340;48.756;9.226;2023-07-13T08:28:28;23.50;99.90
18426;DHT22;9340;48.756;9.226;2023-07-13T08:30:55;23.50;99.90
18426;DHT22;9340;48.756;9.226;2023-07-13T08:33:22;23.40;99.90
18426;DHT22;9340;48.756;9.226;2023-07-13T08:35:50;23.00;99.90
18426;DHT22;9340;48.756;9.226;2023-07-13T08:38:18;23.10;99.90
18426;DHT22;9340;48.756;9.226;2023-07-13T08:40:53;23.30;99.90
18426;DHT22;9340;48.756;9.226;2023-07-13T08:43:25;23.40;99.90
18426;DHT22;9340;48.756;9.226;2023-07-13T08:45:58;23.40;99.90
18426;DHT22;9340;48.756;9.226;2023-07-13T08:48:27;23.60;99.90
18426;DHT22;9340;48.756;9.226;2023-07-13T08:50:57;23.70;99.90
18426;DHT22;9340;48.756;9.226;2023-07-13T08:53:29;23.80;99.90
18426;DHT22;9340;48.756;9.226;2023-07-13T08:55:58;23.80;99.90
18426;DHT22;9340;48.756;9.226;2023-07-13T08:58:27;23.70;99.90
18426;DHT22;9340;48.756;9.226;2023-07-13T09:01:01;23.70;99.90
18426;DHT22;9340;48.756;9.226;2023-07-13T09:03:34;23.70;99.90
18426;DHT22;9340;48.756;9.226;2023-07-13T09:06:03;23.80;99.90
18426;DHT22;9340;48.756;9.226;2023-07-13T09:08:38;23.80;99.90
18426;DHT22;9340;48.756;9.226;2023-07-13T09:11:23;23.70;99.90
18426;DHT22;9340;48.756;9.226;2023-07-13T09:13:57;24.10;99.90
18426;DHT22;9340;48.756;9.226;2023-07-13T09:16:27;24.40;99.90
18426;DHT22;9340;48.756;9.226;2023-07-13T09:18:58;24.90;99.90
18426;DHT22;9340;48.756;9.226;2023-07-13T09:21:28;24.80;99.90
18426;DHT22;9340;48.756;9.226;2023-07-13T09:23:59;24.80;99.90
18426;DHT22;9340;48.756;9.226;2023-07-13T09:26:29;24.70;99.90
18426;DHT22;9340;48.756;9.226;2023-07-13T09:29:14;24.30;99.90
18426;DHT22;9340;48.756;9.226;2023-07-13T09:31:47;24.50;99.90
18426;DHT22;9340;48.756;9.226;2023-07-13T09:34:16;24.60;99.90
18426;DHT22;9340;48.756;9.226;2023-07-13T09:36:43;24.40;99.90
18426;DHT22;9340;48.756;9.226;2023-07-13T09:39:15;24.20;99.90
18426;DHT22;9340;48.756;9.226;2023-07-13T09:41:57;23.70;99.90
18426;DHT22;9340;48.756;9.226;2023-07-13T09:44:28;23.60;99.90
18426;DHT22;9340;48.756;9.226;2023-07-13T09:46:58;24.00;99.90
18426;DHT22;9340;48.756;9.226;2023-07-13T09:49:25;24.50;99.90
18426;DHT22;9340;48.756;9.226;2023-07-13T09:51:58;24.80;99.90
18426;DHT22;9340;48.756;9.226;2023-07-13T09:54:25;25.40;99.90
18426;DHT22;9340;48.756;9.226;2023-07-13T09:56:56;25.20;99.90
18426;DHT22;9340;48.756;9.226;2023-07-13T09:59:26;25.20;99.90
18426;DHT22;9340;48.756;9.226;2023-07-13T10:01:53;24.90;99.90
18426;DHT22;9340;48.756;9.226;2023-07-13T10:04:28;24.70;99.90
18426;DHT22;9340;48.756;9.226;2023-07-13T10:07:05;24.60;99.90
18426;DHT22;9340;48.756;9.226;2023-07-13T10:09:32;24.70;99.90
18426;DHT22;9340;48.756;9.226;2023-07-13T10:11:59;24.90;99.90
18426;DHT22;9340;48.756;9.226;2023-07-13T10:14:26;25.00;99.90
18426;DHT22;9340;48.756;9.226;2023-07-13T10:16:58;25.10;99.90
18426;DHT22;9340;48.756;9.226;2023-07-13T10:19:31;25.10;99.90
18426;DHT22;9340;48.756;9.226;2023-07-13T10:22:00;25.10;99.90
18426;DHT22;9340;48.756;9.226;2023-07-13T10:24:31;25.10;99.90
18426;DHT22;9340;48.756;9.226;2023-07-13T10:27:01;24.80;99.90
18426;DHT22;9340;48.756;9.226;2023-07-13T10:29:34;25.00;99.90
18426;DHT22;9340;48.756;9.226;2023-07-13T10:32:02;25.70;99.90
18426;DHT22;9340;48.756;9.226;2023-07-13T10:34:31;26.20;99.90
18426;DHT22;9340;48.756;9.226;2023-07-13T10:37:00;26.40;99.90
18426;DHT22;9340;48.756;9.226;2023-07-13T10:39:28;26.20;99.90
18426;DHT22;9340;48.756;9.226;2023-07-13T10:41:58;26.10;99.90
18426;DHT22;9340;48.756;9.226;2023-07-13T10:44:27;26.60;99.90
18426;DHT22;9340;48.756;9.226;2023-07-13T10:46:58;26.40;99.90
18426;DHT22;9340;48.756;9.226;2023-07-13T10:49:27;26.00;99.60
18426;DHT22;9340;48.756;9.226;2023-07-13T10:51:56;25.70;99.90
18426;DHT22;9340;48.756;9.226;2023-07-13T10:54:27;26.20;99.90
18426;DHT22;9340;48.756;9.226;2023-07-13T10:57:10;26.70;99.90
18426;DHT22;9340;48.756;9.226;2023-07-13T10:59:42;26.90;99.90
18426;DHT22;9340;48.756;9.226;2023-07-13T11:02:15;27.40;99.90
18426;DHT22;9340;48.756;9.226;2023-07-13T11:04:44;27.70;99.90
18426;DHT22;9340;48.756;9.226;2023-07-13T11:07:20;28.00;99.90
18426;DHT22;9340;48.756;9.226;2023-07-13T11:09:51;28.20;99.90
18426;DHT22;9340;48.756;9.226;2023-07-13T11:15:30;27.70;98.40
18426;DHT22;9340;48.756;9.226;2023-07-13T11:17:57;27.70;99.60
18426;DHT22;9340;48.756;9.226;2023-07-13T11:20:37;28.00;99.80
18426;DHT22;9340;48.756;9.226;2023-07-13T11:23:29;28.00;96.50
18426;DHT22;9340;48.756;9.226;2023-07-13T11:25:56;26.90;99.20
18426;DHT22;9340;48.756;9.226;2023-07-13T11:28:25;26.70;99.60
18426;DHT22;9340;48.756;9.226;2023-07-13T11:31:12;26.50;98.40
18426;DHT22;9340;48.756;9.226;2023-07-13T11:33:56;25.80;97.80
18426;DHT22;9340;48.756;9.226;2023-07-13T11:36:35;25.70;98.70
18426;DHT22;9340;48.756;9.226;2023-07-13T11:39:16;25.90;99.90
18426;DHT22;9340;48.756;9.226;2023-07-13T11:41:49;26.20;99.90
18426;DHT22;9340;48.756;9.226;2023-07-13T11:44:19;26.40;99.50
18426;DHT22;9340;48.756;9.226;2023-07-13T11:46:47;26.40;99.30
18426;DHT22;9340;48.756;9.226;2023-07-13T11:49:18;26.40;98.20
18426;DHT22;9340;48.756;9.226;2023-07-13T11:51:45;26.40;99.90
18426;DHT22;9340;48.756;9.226;2023-07-13T11:54:24;26.40;99.90
18426;DHT22;9340;48.756;9.226;2023-07-13T11:56:52;26.20;99.90
18426;DHT22;9340;48.756;9.226;2023-07-13T11:59:19;25.80;98.70
18426;DHT22;9340;48.756;9.226;2023-07-13T12:01:49;26.00;99.90
18426;DHT22;9340;48.756;9.226;2023-07-13T12:04:22;26.30;98.20
18426;DHT22;9340;48.756;9.226;2023-07-13T12:06:55;26.80;99.50
18426;DHT22;9340;48.756;9.226;2023-07-13T12:09:23;26.90;97.80
18426;DHT22;9340;48.756;9.226;2023-07-13T12:11:53;26.40;98.00
18426;DHT22;9340;48.756;9.226;2023-07-13T12:14:19;25.80;97.50
18426;DHT22;9340;48.756;9.226;2023-07-13T12:16:50;25.70;98.50
18426;DHT22;9340;48.756;9.226;2023-07-13T12:19:19;25.80;98.20
18426;DHT22;9340;48.756;9.226;2023-07-13T12:21:47;25.90;99.40
18426;DHT22;9340;48.756;9.226;2023-07-13T12:24:15;26.30;97.20
18426;DHT22;9340;48.756;9.226;2023-07-13T12:26:44;26.40;98.70
18426;DHT22;9340;48.756;9.226;2023-07-13T12:29:16;26.90;97.00
18426;DHT22;9340;48.756;9.226;2023-07-13T12:31:45;27.10;96.50
18426;DHT22;9340;48.756;9.226;2023-07-13T12:34:15;27.10;97.50
18426;DHT22;9340;48.756;9.226;2023-07-13T12:36:46;27.20;97.40
18426;DHT22;9340;48.756;9.226;2023-07-13T12:39:17;27.60;96.80
18426;DHT22;9340;48.756;9.226;2023-07-13T12:41:47;28.00;96.40
18426;DHT22;9340;48.756;9.226;2023-07-13T12:44:17;28.20;95.90
18426;DHT22;9340;48.756;9.226;2023-07-13T12:46:56;28.30;95.10
18426;DHT22;9340;48.756;9.226;2023-07-13T12:49:26;28.00;95.20
18426;DHT22;9340;48.756;9.226;2023-07-13T12:51:57;27.70;96.20
18426;DHT22;9340;48.756;9.226;2023-07-13T12:54:24;27.40;95.50
18426;DHT22;9340;48.756;9.226;2023-07-13T12:56:53;27.20;95.80
18426;DHT22;9340;48.756;9.226;2023-07-13T12:59:22;27.20;95.20
18426;DHT22;9340;48.756;9.226;2023-07-13T13:01:51;27.40;94.90
18426;DHT22;9340;48.756;9.226;2023-07-13T13:04:19;27.40;94.40
18426;DHT22;9340;48.756;9.226;2023-07-13T13:06:48;27.00;95.80
18426;DHT22;9340;48.756;9.226;2023-07-13T13:09:16;27.10;95.80
18426;DHT22;9340;48.756;9.226;2023-07-13T13:11:45;27.30;95.00
18426;DHT22;9340;48.756;9.226;2023-07-13T13:14:13;27.30;95.50
18426;DHT22;9340;48.756;9.226;2023-07-13T13:16:46;26.90;95.70
18426;DHT22;9340;48.756;9.226;2023-07-13T13:19:16;26.80;96.10
18426;DHT22;9340;48.756;9.226;2023-07-13T13:21:44;26.80;96.10
18426;DHT22;9340;48.756;9.226;2023-07-13T13:24:11;27.10;95.80
18426;DHT22;9340;48.756;9.226;2023-07-13T13:26:39;27.20;95.30
18426;DHT22;9340;48.756;9.226;2023-07-13T13:29:13;27.60;94.60
18426;DHT22;9340;48.756;9.226;2023-07-13T13:31:41;27.90;94.60
18426;DHT22;9340;48.756;9.226;2023-07-13T13:34:09;28.20;93.90
18426;DHT22;9340;48.756;9.226;2023-07-13T13:36:37;27.90;93.30
18426;DHT22;9340;48.756;9.226;2023-07-13T13:39:10;27.70;93.50
18426;DHT22;9340;48.756;9.226;2023-07-13T13:41:43;27.40;93.80
18426;DHT22;9340;48.756;9.226;2023-07-13T13:44:09;27.30;94.00
18426;DHT22;9340;48.756;9.226;2023-07-13T13:46:37;27.30;94.50
18426;DHT22;9340;48.756;9.226;2023-07-13T13:49:04;27.30;93.90
18426;DHT22;9340;48.756;9.226;2023-07-13T13:51:32;27.30;93.70
18426;DHT22;9340;48.756;9.226;2023-07-13T13:53:58;27.20;94.10
18426;DHT22;9340;48.756;9.226;2023-07-13T13:56:27;27.10;93.90
18426;DHT22;9340;48.756;9.226;2023-07-13T13:58:53;27.30;93.40
18426;DHT22;9340;48.756;9.226;2023-07-13T14:01:21;27.50;93.60
18426;DHT22;9340;48.756;9.226;2023-07-13T14:03:51;27.60;93.30
18426;DHT22;9340;48.756;9.226;2023-07-13T14:06:18;27.80;93.50
18426;DHT22;9340;48.756;9.226;2023-07-13T14:08:44;27.70;93.80
18426;DHT22;9340;48.756;9.226;2023-07-13T14:11:14;27.80;93.60
18426;DHT22;9340;48.756;9.226;2023-07-13T14:13:43;27.90;92.40
18426;DHT22;9340;48.756;9.226;2023-07-13T14:16:15;28.10;92.30
18426;DHT22;9340;48.756;9.226;2023-07-13T14:18:43;27.90;92.10
18426;DHT22;9340;48.756;9.226;2023-07-13T14:21:13;27.80;92.40
18426;DHT22;9340;48.756;9.226;2023-07-13T14:23:41;27.80;92.60
18426;DHT22;9340;48.756;9.226;2023-07-13T14:26:11;27.80;92.20
18426;DHT22;9340;48.756;9.226;2023-07-13T14:28:42;27.90;92.80
18426;DHT22;9340;48.756;9.226;2023-07-13T14:31:09;27.70;92.00
18426;DHT22;9340;48.756;9.226;2023-07-13T14:33:36;27.70;92.60
18426;DHT22;9340;48.756;9.226;2023-07-13T14:36:04;27.70;92.60
18426;DHT22;9340;48.756;9.226;2023-07-13T14:38:41;27.20;93.50
18426;DHT22;9340;48.756;9.226;2023-07-13T14:41:08;27.10;92.90
18426;DHT22;9340;48.756;9.226;2023-07-13T14:43:34;26.80;93.50
18426;DHT22;9340;48.756;9.226;2023-07-13T14:46:01;27.00;93.80
18426;DHT22;9340;48.756;9.226;2023-07-13T14:48:30;26.90;94.60
18426;DHT22;9340;48.756;9.226;2023-07-13T14:50:58;27.30;93.20
18426;DHT22;9340;48.756;9.226;2023-07-13T14:53:26;27.70;92.40
18426;DHT22;9340;48.756;9.226;2023-07-13T14:55:54;28.00;92.80
18426;DHT22;9340;48.756;9.226;2023-07-13T14:58:21;28.30;92.30
18426;DHT22;9340;48.756;9.226;2023-07-13T15:00:47;28.60;91.80
18426;DHT22;9340;48.756;9.226;2023-07-13T15:03:20;29.00;92.00
18426;DHT22;9340;48.756;9.226;2023-07-13T15:05:48;29.10;91.50
18426;DHT22;9340;48.756;9.226;2023-07-13T15:08:15;29.20;91.10
18426;DHT22;9340;48.756;9.226;2023-07-13T15:10:42;29.10;91.00
18426;DHT22;9340;48.756;9.226;2023-07-13T15:13:16;28.60;90.50
18426;DHT22;9340;48.756;9.226;2023-07-13T15:15:45;28.30;91.80
18426;DHT22;9340;48.756;9.226;2023-07-13T15:18:14;28.10;92.10
18426;DHT22;9340;48.756;9.226;2023-07-13T15:20:43;27.70;92.70
18426;DHT22;9340;48.756;9.226;2023-07-13T15:23:10;27.20;92.50
18426;DHT22;9340;48.756;9.226;2023-07-13T15:25:37;26.80;93.70
18426;DHT22;9340;48.756;9.226;2023-07-13T15:28:04;26.70;93.30
18426;DHT22;9340;48.756;9.226;2023-07-13T15:30:36;26.70;93.60
18426;DHT22;9340;48.756;9.226;2023-07-13T15:33:11;27.00;93.60
18426;DHT22;9340;48.756;9.226;2023-07-13T15:35:38;27.10;93.50
18426;DHT22;9340;48.756;9.226;2023-07-13T15:38:13;27.20;93.70
18426;DHT22;9340;48.756;9.226;2023-07-13T15:40:41;27.30;93.00
18426;DHT22;9340;48.756;9.226;2023-07-13T15:43:10;27.20;93.00
18426;DHT22;9340;48.756;9.226;2023-07-13T15:45:39;27.00;92.60
18426;DHT22;9340;48.756;9.226;2023-07-13T15:48:13;26.60;93.60
18426;DHT22;9340;48.756;9.226;2023-07-13T15:50:43;26.60;93.80
18426;DHT22;9340;48.756;9.226;2023-07-13T15:53:11;26.70;93.10
18426;DHT22;9340;48.756;9.226;2023-07-13T15:55:38;26.90;93.10
18426;DHT22;9340;48.756;9.226;2023-07-13T15:58:08;27.00;93.30